Aviation Digital Data Service (ADDS)

Output produced by METARs form (2149 UTC 24 February 2018)
found at http://aviationweather.gov/adds/metars/
 
KBWI 242049Z 2421/2524 04004KT 3SM -SHRA BR OVC005 
     FM242200 07006KT 5SM -SHRA BR OVC006 
     FM250000 05006KT 3SM BR OVC008 
     FM250500 07005KT 2SM -SHRA BR OVC008 
     FM250800 08004KT 1SM -SHRA BR OVC003 
     FM251300 12005KT 1/2SM -SHRA FG OVC003 
     FM251500 18006KT 2SM -SHRA OVC003 WS020/22035KT 
     FM251800 22010G17KT P6SM -SHRA OVC015 
     FM252200 27007KT P6SM BKN050